首页
METAR-TAF:

METAR-TAF

机场 :

Skiathos, 希腊

纬度: 39-11N, 经度: 023-30E, 海拔: 15米

当前天气观测

该预报发布于4小时和1分钟前的20:50 UTC
风速15节,风向北转西北
温度 28°C
湿度 58%
气压 1005 hPa
能见度10公里或以上
少量云层高于3000英尺

METAR: LGSK 172050Z 34015KT 9999 FEW030 28/19 Q1005

时间: 03:51 (00:51 UTC)

预报

该预报发布于1小时和51分钟前的23:00 UTC
预报有效从18日的 00点(UTC)到 18日的 09点(UTC)
风速18节,风向北转西北
能见度10公里或以上
少量云层高于3000英尺

TAF: LGSK 172300Z 1800/1809 33018KT 9999 FEW030

超过4000个机场的气象观测和天气预报(METAR&TAF报告)。

可查询的气象台以黄色和红色小点在地图上表示。

将鼠标移到小点上方,可查看气象台名称。

然后点击查看天气观测和预报。

如需切换地图:点击带黑十字的绿色按钮放大地图;点击带横线的绿色按钮缩小地图;或者点击绿色箭头查看邻近地区的地图。


METAR-TAF: